createdAt,value
2017-11-20T00:01:32.489Z,9.90
2017-11-20T00:04:00.448Z,17.50
2017-11-20T00:06:28.725Z,23.60
2017-11-20T00:08:56.217Z,12.77
2017-11-20T00:11:23.769Z,18.47
2017-11-20T00:13:51.256Z,9.20
2017-11-20T00:16:18.760Z,15.23
2017-11-20T00:18:46.275Z,15.73
2017-11-20T00:21:13.793Z,21.03
2017-11-20T00:23:41.242Z,23.87
2017-11-20T00:26:08.796Z,23.53
2017-11-20T00:28:36.526Z,18.87
2017-11-20T00:31:04.774Z,15.60
2017-11-20T00:33:32.294Z,16.67
2017-11-20T00:35:59.787Z,15.47
2017-11-20T00:38:27.289Z,12.70
2017-11-20T00:40:54.905Z,15.17
2017-11-20T00:43:22.413Z,14.50
2017-11-20T00:45:49.904Z,24.93
2017-11-20T00:48:17.426Z,18.83
2017-11-20T00:50:44.927Z,16.13
2017-11-20T00:53:12.417Z,13.47
2017-11-20T00:55:39.939Z,32.57
2017-11-20T00:58:07.460Z,19.07
2017-11-20T01:00:34.987Z,22.30
2017-11-20T01:03:03.242Z,31.57
2017-11-20T01:05:31.165Z,13.47
2017-11-20T01:07:58.701Z,14.47
2017-11-20T01:10:26.258Z,15.30
2017-11-20T01:12:53.767Z,21.20
2017-11-20T01:15:21.291Z,14.50
2017-11-20T01:17:48.789Z,18.30
2017-11-20T01:20:16.302Z,17.33
2017-11-20T01:22:43.799Z,18.17
2017-11-20T01:25:11.333Z,26.70
2017-11-20T01:27:38.843Z,25.13
2017-11-20T01:30:06.381Z,22.53
2017-11-20T01:32:34.658Z,17.63
2017-11-20T01:35:02.143Z,19.23
2017-11-20T01:37:29.665Z,18.10
2017-11-20T01:39:57.166Z,36.17
2017-11-20T01:42:24.672Z,19.27
2017-11-20T01:44:52.161Z,17.63
2017-11-20T01:47:20.442Z,19.90
2017-11-20T01:49:48.697Z,27.33
2017-11-20T01:52:16.996Z,26.43
2017-11-20T01:54:44.497Z,22.17
2017-11-20T01:57:11.983Z,24.00
2017-11-20T01:59:40.273Z,28.90
2017-11-20T02:02:07.782Z,23.43
2017-11-20T02:04:35.302Z,27.63
2017-11-20T02:07:02.794Z,24.17
2017-11-20T02:09:30.313Z,23.60
2017-11-20T02:11:57.813Z,21.90
2017-11-20T02:14:25.344Z,25.30
2017-11-20T02:16:52.831Z,24.20
2017-11-20T02:19:20.329Z,32.60
2017-11-20T02:21:48.621Z,19.93
2017-11-20T02:24:16.114Z,22.23
2017-11-20T02:26:43.626Z,27.57
2017-11-20T02:29:11.134Z,22.10
2017-11-20T02:31:38.668Z,19.33
2017-11-20T02:34:06.171Z,22.50
2017-11-20T02:36:34.435Z,29.10
2017-11-20T02:39:01.962Z,24.90
2017-11-20T02:41:29.473Z,34.13
2017-11-20T02:43:57.749Z,31.83
2017-11-20T02:46:26.031Z,30.13
2017-11-20T02:48:53.582Z,33.10
2017-11-20T02:51:21.888Z,19.13
2017-11-20T02:53:49.374Z,23.50
2017-11-20T02:56:16.891Z,18.20
2017-11-20T02:58:44.391Z,18.33
2017-11-20T03:01:11.925Z,29.97
2017-11-20T03:03:39.417Z,17.47
2017-11-20T03:06:06.935Z,30.40
2017-11-20T03:08:34.422Z,16.40
2017-11-20T03:11:01.943Z,18.57
2017-11-20T03:13:29.446Z,24.63
2017-11-20T03:15:56.978Z,29.50
2017-11-20T03:18:24.475Z,23.83
2017-11-20T03:20:52.724Z,21.20
2017-11-20T03:23:20.227Z,18.27
2017-11-20T03:25:47.764Z,25.13
2017-11-20T03:28:16.054Z,26.17
2017-11-20T03:30:43.553Z,23.90
2017-11-20T03:33:11.191Z,26.57
2017-11-20T03:35:38.682Z,17.40
2017-11-20T03:38:06.194Z,22.27
2017-11-20T03:40:33.700Z,27.90
2017-11-20T03:43:01.200Z,29.90
2017-11-20T03:45:28.727Z,24.13
2017-11-20T03:47:56.213Z,25.17
2017-11-20T03:50:23.737Z,35.33
2017-11-20T03:52:51.228Z,26.20
2017-11-20T03:55:18.748Z,19.90
2017-11-20T03:57:46.361Z,23.20
2017-11-20T04:00:13.879Z,22.13
2017-11-20T04:02:42.142Z,23.23
2017-11-20T04:05:09.655Z,18.13
2017-11-20T04:07:37.118Z,23.27
2017-11-20T04:10:04.664Z,24.53
2017-11-20T04:12:32.162Z,23.23
2017-11-20T04:14:59.681Z,20.37
2017-11-20T04:17:27.169Z,14.67
2017-11-20T04:19:54.662Z,18.70
2017-11-20T04:22:22.953Z,17.20
2017-11-20T04:24:50.482Z,22.17
2017-11-20T04:27:18.738Z,23.43
2017-11-20T04:29:46.355Z,27.40
2017-11-20T04:32:13.868Z,19.03
2017-11-20T04:34:41.356Z,18.10
2017-11-20T04:37:08.895Z,17.70
2017-11-20T04:39:37.149Z,17.07
2017-11-20T04:42:04.666Z,19.67
2017-11-20T04:44:32.154Z,17.93
2017-11-20T04:46:59.697Z,16.73
2017-11-20T04:49:27.198Z,36.00
2017-11-20T04:51:55.454Z,24.97
2017-11-20T04:54:22.959Z,19.90
2017-11-20T04:56:50.442Z,23.60
2017-11-20T04:59:17.974Z,26.03
2017-11-20T05:01:45.469Z,18.67
2017-11-20T05:04:12.992Z,16.50
2017-11-20T05:06:40.491Z,18.83
2017-11-20T05:09:08.031Z,18.03
2017-11-20T05:11:35.517Z,17.50
2017-11-20T05:14:03.777Z,19.17
2017-11-20T05:16:35.489Z,18.90
2017-11-20T05:19:03.498Z,15.73
2017-11-20T05:21:31.007Z,33.67
2017-11-20T05:23:58.500Z,16.63
2017-11-20T05:26:26.027Z,19.33
2017-11-20T05:28:53.581Z,21.97
2017-11-20T05:31:21.069Z,22.67
2017-11-20T05:33:48.607Z,22.17
2017-11-20T05:36:16.116Z,21.53
2017-11-20T05:38:44.414Z,14.30
2017-11-20T05:41:11.978Z,15.17
2017-11-20T05:43:39.470Z,16.33
2017-11-20T05:46:07.016Z,35.27
2017-11-20T05:48:34.546Z,17.57
2017-11-20T05:51:02.037Z,16.10
2017-11-20T05:53:29.554Z,28.17
2017-11-20T05:55:57.094Z,17.03
2017-11-20T05:58:25.378Z,19.83
2017-11-20T06:00:52.877Z,15.73
2017-11-20T06:03:20.401Z,13.50
2017-11-20T06:05:47.882Z,12.87
2017-11-20T06:08:15.398Z,12.87
2017-11-20T06:10:43.684Z,17.20
2017-11-20T06:13:11.164Z,13.03
2017-11-20T06:15:38.726Z,18.00
2017-11-20T06:18:06.523Z,15.60
2017-11-20T06:20:34.016Z,17.47
2017-11-20T06:23:01.521Z,15.93
2017-11-20T06:25:29.033Z,11.80
2017-11-20T06:27:56.551Z,10.03
2017-11-20T06:30:24.062Z,11.87
2017-11-20T06:32:51.576Z,11.63
2017-11-20T06:35:19.104Z,13.87
2017-11-20T06:37:46.597Z,8.57
2017-11-20T06:40:14.855Z,16.83
2017-11-20T06:42:42.383Z,7.90
2017-11-20T06:45:09.880Z,17.03
2017-11-20T06:47:37.372Z,17.83
2017-11-20T06:50:04.883Z,10.27
2017-11-20T06:52:32.382Z,19.10
2017-11-20T06:54:59.903Z,10.80
2017-11-20T06:57:27.395Z,11.00
2017-11-20T06:59:54.945Z,14.70
2017-11-20T07:02:22.432Z,8.17
2017-11-20T07:04:50.503Z,10.33
2017-11-20T07:07:18.010Z,11.83
2017-11-20T07:09:46.308Z,10.67
2017-11-20T07:12:13.796Z,10.73
2017-11-20T07:14:41.308Z,8.00
2017-11-20T07:17:09.581Z,10.30
2017-11-20T07:19:37.864Z,16.23
2017-11-20T07:22:06.113Z,13.20
2017-11-20T07:24:33.626Z,9.17
2017-11-20T07:27:02.179Z,10.27
2017-11-20T07:29:41.479Z,7.43
2017-11-20T07:32:08.974Z,18.33
2017-11-20T07:34:48.465Z,15.30
2017-11-20T07:37:27.770Z,11.73
2017-11-20T07:40:07.242Z,10.17
2017-11-20T07:42:34.730Z,11.13
2017-11-20T07:45:04.165Z,10.03
2017-11-20T07:47:31.678Z,11.23
2017-11-20T07:49:59.927Z,9.17
2017-11-20T07:52:27.430Z,12.63
2017-11-20T07:54:54.919Z,11.47
2017-11-20T07:57:22.442Z,18.73
2017-11-20T07:59:49.946Z,12.43
2017-11-20T08:02:17.454Z,9.53
2017-11-20T08:04:44.948Z,11.37
2017-11-20T08:07:12.462Z,10.13
2017-11-20T08:09:39.949Z,8.23
2017-11-20T08:12:07.479Z,12.63
2017-11-20T08:14:34.955Z,9.10
2017-11-20T08:17:02.443Z,8.23
2017-11-20T08:19:29.952Z,9.37
2017-11-20T08:21:57.466Z,13.93
2017-11-20T08:24:24.996Z,12.73
2017-11-20T08:26:52.917Z,8.37
2017-11-20T08:29:21.188Z,9.40
2017-11-20T08:31:49.434Z,7.97
2017-11-20T08:34:16.962Z,9.33
2017-11-20T08:36:44.449Z,9.87
2017-11-20T08:39:11.930Z,6.63
2017-11-20T08:41:40.206Z,16.27
2017-11-20T08:44:08.460Z,7.80
2017-11-20T08:46:36.447Z,10.23
2017-11-20T08:49:04.717Z,15.13
2017-11-20T08:51:32.978Z,17.63
2017-11-20T08:54:00.510Z,14.53
2017-11-20T08:56:28.006Z,9.43
2017-11-20T08:58:55.493Z,13.90
2017-11-20T09:01:23.017Z,9.67
2017-11-20T09:03:50.533Z,13.30
2017-11-20T09:06:18.033Z,8.87
2017-11-20T09:08:46.329Z,7.23
2017-11-20T09:11:13.825Z,18.93
2017-11-20T09:13:41.304Z,13.60
2017-11-20T09:16:08.827Z,13.40
2017-11-20T09:18:36.322Z,13.83
2017-11-20T09:21:03.806Z,11.33
2017-11-20T09:23:32.075Z,6.60
2017-11-20T09:26:00.321Z,8.50
2017-11-20T09:28:27.838Z,6.77
2017-11-20T09:30:55.357Z,9.07
2017-11-20T09:33:23.632Z,12.40
2017-11-20T09:35:51.904Z,13.10
2017-11-20T09:38:20.196Z,10.10
2017-11-20T09:40:47.688Z,10.90
2017-11-20T09:43:15.182Z,10.30
2017-11-20T09:45:42.698Z,11.20
2017-11-20T09:48:10.183Z,11.53
2017-11-20T09:50:37.693Z,13.80
2017-11-20T09:53:05.183Z,12.03
2017-11-20T09:55:32.700Z,11.20
2017-11-20T09:58:00.215Z,16.70
2017-11-20T10:00:27.698Z,9.60
2017-11-20T10:02:55.219Z,9.83
2017-11-20T10:05:22.730Z,11.73
2017-11-20T10:07:50.221Z,14.60
2017-11-20T10:10:17.729Z,11.40
2017-11-20T10:12:46.002Z,12.50
2017-11-20T10:15:14.262Z,12.13
2017-11-20T10:17:41.775Z,12.80
2017-11-20T10:20:09.267Z,10.00
2017-11-20T10:22:36.796Z,13.87
2017-11-20T10:25:04.290Z,13.57
2017-11-20T10:27:31.774Z,12.03
2017-11-20T10:29:59.303Z,11.57
2017-11-20T10:32:27.564Z,11.17
2017-11-20T10:34:55.062Z,12.47
2017-11-20T10:37:22.573Z,12.23
2017-11-20T10:39:50.065Z,14.47
2017-11-20T10:42:17.580Z,10.80
2017-11-20T10:44:45.100Z,13.00
2017-11-20T10:47:12.594Z,13.60
2017-11-20T10:49:40.084Z,20.67
2017-11-20T10:52:08.394Z,20.67
2017-11-20T10:54:35.878Z,15.53
2017-11-20T10:57:03.370Z,14.37
2017-11-20T10:59:31.660Z,19.30
2017-11-20T11:01:59.160Z,18.87
2017-11-20T11:04:26.672Z,21.43
2017-11-20T11:06:54.928Z,16.57
2017-11-20T11:09:23.213Z,13.57
2017-11-20T11:11:51.465Z,14.30
2017-11-20T11:14:18.985Z,17.70
2017-11-20T11:16:46.469Z,16.20
2017-11-20T11:19:13.984Z,19.53
2017-11-20T11:21:41.479Z,15.80
2017-11-20T11:24:08.999Z,21.83
2017-11-20T11:26:36.490Z,11.50
2017-11-20T11:29:03.986Z,15.67
2017-11-20T11:31:32.278Z,27.53
2017-11-20T11:33:59.781Z,18.40
2017-11-20T11:36:27.276Z,15.43
2017-11-20T11:38:55.553Z,16.23
2017-11-20T11:41:23.802Z,17.03
2017-11-20T11:43:51.317Z,19.10
2017-11-20T11:46:18.815Z,14.50
2017-11-20T11:48:46.303Z,21.77
2017-11-20T11:51:13.817Z,15.83
2017-11-20T11:53:41.350Z,21.63
2017-11-20T11:56:08.868Z,20.20
2017-11-20T11:58:37.118Z,19.87
2017-11-20T12:01:05.378Z,17.63
2017-11-20T12:03:32.886Z,16.20
2017-11-20T12:06:00.393Z,16.70
2017-11-20T12:08:27.927Z,18.10
2017-11-20T12:10:55.438Z,10.60
2017-11-20T12:13:23.695Z,18.00
2017-11-20T12:15:51.213Z,12.20
2017-11-20T12:18:18.689Z,14.43
2017-11-20T12:20:46.174Z,14.60
2017-11-20T12:23:14.462Z,13.90
2017-11-20T12:25:42.722Z,14.83
2017-11-20T12:28:10.979Z,13.83
2017-11-20T12:30:38.501Z,8.93
2017-11-20T12:33:08.137Z,14.07
2017-11-20T12:35:35.629Z,11.23
2017-11-20T12:38:04.010Z,21.53
2017-11-20T12:40:32.272Z,12.93
2017-11-20T12:43:00.525Z,16.17
2017-11-20T12:45:28.056Z,11.00
2017-11-20T12:47:55.556Z,11.73
2017-11-20T12:50:23.859Z,11.37
2017-11-20T12:52:51.347Z,10.67
2017-11-20T12:55:18.822Z,9.70
2017-11-20T12:57:46.332Z,13.50
2017-11-20T13:00:13.814Z,7.93
2017-11-20T13:02:41.325Z,9.30
2017-11-20T13:05:09.565Z,8.67
2017-11-20T13:07:37.010Z,7.20
2017-11-20T13:10:04.565Z,11.37
2017-11-20T13:12:32.043Z,9.50
2017-11-20T13:14:59.553Z,9.43
2017-11-20T13:17:27.054Z,8.87
2017-11-20T13:19:54.578Z,8.27
2017-11-20T13:22:22.068Z,8.03
2017-11-20T13:24:49.551Z,8.03
2017-11-20T13:27:17.832Z,9.50
2017-11-20T13:29:46.077Z,8.53
2017-11-20T13:32:13.561Z,7.60
2017-11-20T13:34:41.891Z,8.23
2017-11-20T13:37:09.377Z,7.20
2017-11-20T13:42:11.551Z,6.50
2017-11-20T13:44:39.056Z,7.30
2017-11-20T13:47:06.558Z,7.40
2017-11-20T13:49:34.065Z,6.20
2017-11-20T13:52:01.554Z,5.67
2017-11-20T13:54:29.072Z,5.47
2017-11-20T13:56:56.558Z,7.70
2017-11-20T13:59:24.040Z,6.40
2017-11-20T14:01:51.548Z,6.03
2017-11-20T14:04:19.026Z,6.40
2017-11-20T14:06:46.578Z,6.10
2017-11-20T14:09:14.081Z,6.40
2017-11-20T14:11:41.561Z,7.30
2017-11-20T14:14:09.090Z,7.63
2017-11-20T14:16:37.349Z,9.70
2017-11-20T14:19:04.831Z,5.50
2017-11-20T14:21:33.104Z,5.27
2017-11-20T14:24:01.373Z,4.50
2017-11-20T14:26:28.890Z,7.60
2017-11-20T14:28:56.406Z,5.90
2017-11-20T14:31:23.926Z,7.10
2017-11-20T14:33:51.413Z,6.03
2017-11-20T14:36:19.681Z,8.70
2017-11-20T14:38:47.936Z,9.30
2017-11-20T14:41:15.457Z,7.57
2017-11-20T14:43:42.932Z,5.97
2017-11-20T14:46:10.413Z,8.47
2017-11-20T14:48:40.417Z,7.90
2017-11-20T14:54:10.473Z,5.87
2017-11-20T14:56:38.770Z,6.30
2017-11-20T14:59:06.249Z,8.00
2017-11-20T15:01:45.798Z,7.30
2017-11-20T15:04:13.277Z,8.07
2017-11-20T15:06:40.758Z,7.30
2017-11-20T15:09:09.041Z,7.90
2017-11-20T15:11:37.293Z,6.57
2017-11-20T15:14:04.799Z,7.23
2017-11-20T15:16:32.293Z,8.13
2017-11-20T15:18:59.822Z,6.63
2017-11-20T15:21:27.313Z,11.20
2017-11-20T15:23:54.810Z,7.43
2017-11-20T15:26:22.338Z,10.47
2017-11-20T15:28:49.829Z,11.97
2017-11-20T15:31:17.310Z,6.47
2017-11-20T15:33:44.824Z,8.30
2017-11-20T15:36:13.078Z,8.13
2017-11-20T15:38:40.607Z,5.57
2017-11-20T15:41:08.052Z,6.00
2017-11-20T15:43:35.580Z,6.73
2017-11-20T15:46:03.097Z,7.90
2017-11-20T15:48:30.623Z,8.07
2017-11-20T15:50:58.109Z,8.27
2017-11-20T15:53:25.594Z,9.83
2017-11-20T15:55:53.875Z,9.93
2017-11-20T15:58:21.367Z,11.93
2017-11-20T16:00:48.872Z,10.03
2017-11-20T16:03:17.170Z,12.47
2017-11-20T16:05:44.656Z,12.03
2017-11-20T16:08:12.182Z,11.53
2017-11-20T16:10:39.693Z,13.80
2017-11-20T16:13:07.181Z,10.77
2017-11-20T16:15:35.473Z,11.43
2017-11-20T16:18:02.959Z,12.33
2017-11-20T16:20:30.578Z,10.97
2017-11-20T16:22:58.837Z,12.23
2017-11-20T16:25:27.121Z,11.97
2017-11-20T16:27:55.374Z,11.80
2017-11-20T16:30:22.899Z,10.20
2017-11-20T16:32:50.381Z,11.53
2017-11-20T16:35:17.863Z,8.87
2017-11-20T16:37:46.151Z,10.23
2017-11-20T16:40:13.648Z,10.93
2017-11-20T16:42:41.164Z,9.70
2017-11-20T16:45:08.658Z,9.57
2017-11-20T16:47:36.168Z,9.70
2017-11-20T16:50:04.442Z,11.27
2017-11-20T16:52:32.723Z,11.93
2017-11-20T16:55:00.973Z,10.73
2017-11-20T16:57:40.309Z,10.30
2017-11-20T17:00:19.657Z,12.13
2017-11-20T17:03:11.566Z,11.13
2017-11-20T17:05:39.077Z,10.53
2017-11-20T17:08:06.562Z,11.07
2017-11-20T17:10:34.090Z,11.00
2017-11-20T17:13:01.583Z,10.60
2017-11-20T17:15:29.069Z,11.10
2017-11-20T17:17:57.401Z,13.47
2017-11-20T17:20:24.928Z,13.23
2017-11-20T17:22:52.470Z,14.13
2017-11-20T17:25:19.923Z,13.47
2017-11-20T17:27:47.492Z,14.37
2017-11-20T17:30:15.036Z,10.37
2017-11-20T17:32:43.293Z,13.03
2017-11-20T17:35:10.811Z,13.07
2017-11-20T17:37:38.305Z,15.43
2017-11-20T17:40:05.812Z,14.50
2017-11-20T17:42:33.317Z,17.00
2017-11-20T17:45:00.824Z,18.03
2017-11-20T17:47:28.312Z,15.30
2017-11-20T17:49:55.944Z,19.30
2017-11-20T17:52:23.497Z,17.63
2017-11-20T17:54:50.986Z,18.63
2017-11-20T17:57:18.511Z,18.27
2017-11-20T17:59:46.986Z,17.50
2017-11-20T18:02:14.478Z,29.33
2017-11-20T18:04:42.810Z,19.57
2017-11-20T18:07:10.310Z,18.40
2017-11-20T18:09:37.824Z,22.60
2017-11-20T18:12:05.321Z,19.90
2017-11-20T18:14:32.837Z,19.43
2017-11-20T18:17:01.248Z,20.10
2017-11-20T18:19:28.734Z,19.73
2017-11-20T18:21:56.266Z,17.57
2017-11-20T18:24:24.658Z,18.87
2017-11-20T18:26:52.266Z,18.63
2017-11-20T18:29:19.793Z,24.97
2017-11-20T18:31:48.061Z,22.23
2017-11-20T18:34:16.349Z,22.27
2017-11-20T18:36:43.873Z,26.73
2017-11-20T18:39:11.381Z,21.53
2017-11-20T18:41:38.886Z,17.90
2017-11-20T18:44:06.426Z,20.17
2017-11-20T18:46:34.696Z,24.50
2017-11-20T18:49:02.289Z,20.10
2017-11-20T18:51:29.818Z,18.60
2017-11-20T18:53:57.323Z,21.33
2017-11-20T18:56:25.651Z,17.57
2017-11-20T18:58:53.153Z,16.77
2017-11-20T19:01:33.145Z,16.80
2017-11-20T19:07:26.022Z,16.40
2017-11-20T19:09:54.278Z,13.87
2017-11-20T19:12:21.760Z,14.57
2017-11-20T19:14:49.283Z,11.07
2017-11-20T19:17:16.773Z,11.13
2017-11-20T19:19:44.284Z,10.57
2017-11-20T19:22:11.816Z,12.17
2017-11-20T19:24:39.300Z,9.97
2017-11-20T19:27:06.800Z,8.20
2017-11-20T19:29:35.088Z,8.87
2017-11-20T19:32:02.657Z,7.40
2017-11-20T19:34:31.462Z,7.23
2017-11-20T19:36:58.982Z,6.50
2017-11-20T19:39:26.475Z,7.30
2017-11-20T19:41:54.861Z,8.00
2017-11-20T19:44:24.902Z,7.90
2017-11-20T19:46:52.437Z,7.03
2017-11-20T19:49:19.918Z,7.73
2017-11-20T19:51:47.432Z,8.37
2017-11-20T19:54:14.928Z,9.03
2017-11-20T19:56:43.176Z,8.20
2017-11-20T19:59:10.704Z,8.47
2017-11-20T20:01:38.200Z,9.80
2017-11-20T20:04:05.718Z,9.93
2017-11-20T20:06:33.201Z,9.60
2017-11-20T20:09:01.478Z,10.73
2017-11-20T20:11:29.738Z,10.47
2017-11-20T20:13:57.253Z,11.30
2017-11-20T20:16:36.804Z,10.27
2017-11-20T20:19:05.077Z,10.90
2017-11-20T20:21:32.557Z,12.10
2017-11-20T20:24:00.852Z,12.00
2017-11-20T20:26:29.139Z,10.83
2017-11-20T20:28:56.639Z,10.27
2017-11-20T20:31:24.222Z,10.90
2017-11-20T20:33:53.557Z,9.10
2017-11-20T20:36:21.062Z,9.13
2017-11-20T20:38:49.353Z,9.43
2017-11-20T20:41:17.625Z,12.07
2017-11-20T20:43:45.121Z,11.77
2017-11-20T20:46:12.645Z,10.83
2017-11-20T20:48:40.201Z,13.30
2017-11-20T20:51:07.691Z,11.60
2017-11-20T20:53:35.205Z,12.30
2017-11-20T20:56:03.470Z,12.67
2017-11-20T20:58:30.962Z,15.40
2017-11-20T21:00:59.257Z,14.20
2017-11-20T21:03:28.629Z,14.07
2017-11-20T21:05:56.183Z,14.60
2017-11-20T21:08:23.677Z,12.80
2017-11-20T21:10:56.784Z,14.70
2017-11-20T21:13:24.289Z,14.60
2017-11-20T21:15:51.809Z,14.60
2017-11-20T21:18:19.329Z,13.00
2017-11-20T21:20:47.615Z,14.30
2017-11-20T21:23:15.881Z,16.20
2017-11-20T21:25:43.397Z,17.27
2017-11-20T21:28:10.888Z,13.73
2017-11-20T21:30:38.408Z,15.37
2017-11-20T21:33:05.889Z,16.93
2017-11-20T21:35:37.430Z,18.63
2017-11-20T21:38:04.972Z,18.90
2017-11-20T21:40:32.510Z,15.80
2017-11-20T21:42:59.988Z,18.73
2017-11-20T21:45:28.314Z,15.73
2017-11-20T21:47:55.850Z,16.50
2017-11-20T21:50:24.121Z,19.40
2017-11-20T21:52:52.450Z,12.97
2017-11-20T21:55:19.949Z,19.77
2017-11-20T21:57:48.219Z,16.40
2017-11-20T22:00:15.768Z,17.13
2017-11-20T22:02:43.300Z,14.10
2017-11-20T22:05:11.586Z,14.77
2017-11-20T22:07:39.082Z,13.87
2017-11-20T22:10:08.848Z,14.50
2017-11-20T22:15:53.790Z,15.97
2017-11-20T22:18:21.282Z,15.67
2017-11-20T22:21:08.294Z,15.60
2017-11-20T22:23:35.776Z,13.43
2017-11-20T22:26:04.057Z,13.00
2017-11-20T22:28:31.569Z,12.10
2017-11-20T22:30:59.068Z,13.53
2017-11-20T22:33:26.610Z,16.20
2017-11-20T22:35:54.132Z,13.47
2017-11-20T22:38:21.657Z,13.53
2017-11-20T22:40:49.152Z,12.13
2017-11-20T22:43:16.636Z,13.70
2017-11-20T22:45:44.158Z,12.50
2017-11-20T22:51:05.708Z,12.87
2017-11-20T22:53:35.403Z,10.73
2017-11-20T22:56:02.938Z,11.37
2017-11-20T23:01:22.325Z,11.20
2017-11-20T23:03:49.814Z,12.20
2017-11-20T23:06:17.345Z,11.70
2017-11-20T23:08:45.444Z,11.97
2017-11-20T23:11:12.974Z,12.00
2017-11-20T23:13:42.142Z,10.53
2017-11-20T23:16:11.027Z,12.17
2017-11-20T23:18:43.690Z,11.83
2017-11-20T23:21:15.436Z,13.43
2017-11-20T23:23:47.893Z,12.83
2017-11-20T23:26:16.788Z,12.93
2017-11-20T23:28:44.329Z,14.77
2017-11-20T23:31:12.647Z,14.70
2017-11-20T23:33:40.209Z,11.97
2017-11-20T23:36:07.719Z,16.47
2017-11-20T23:38:35.896Z,15.57
2017-11-20T23:41:03.493Z,16.43
2017-11-20T23:43:32.056Z,17.50
2017-11-20T23:46:00.366Z,17.50
2017-11-20T23:48:28.675Z,18.37
2017-11-20T23:50:56.285Z,16.10
2017-11-20T23:53:33.660Z,18.17
2017-11-20T23:56:01.185Z,16.30
2017-11-20T23:58:28.674Z,17.20
